Latest Weather Observations for Perth Airport

IDW60801

Issued at 11:14 pm WST Saturday 23 January 2021 (issued every 10 minutes, with the page automatically refreshed every 10 minutes)

About weather observations | Map of weather stations | Latest weather observations for WA | Other Formats
Station Details ID: 009021 Name: PERTH AIRPORT Lat: -31.93 Lon: 115.98 Height: 15.4 m
Data from the previous 72 hours. | See also: Recent months at Perth Airport
Date/Time
WST
Temp
°C
App
Temp
°C
Dew
Point
°C
Rel
Hum
%
Delta-T
°C
Wind Press
QNH
hPa
Press
MSL
hPa
Rain since
9am
mm
Dir  Spd
km/h
Gust
km/h
Spd
kts
Gust
kts
23/11:00pm 21.1 19.0 13.5 62 4.4 WSW 17 24 9 13 1005.8 1005.7 0.0
23/10:30pm 21.1 18.3 13.3 61 4.5 WSW 20 28 11 15 1006.1 1006.0 0.0
23/10:00pm 21.2 18.5 13.6 62 4.4 SW 20 30 11 16 1006.1 1006.0 0.0
23/09:30pm 21.6 19.7 14.3 63 4.3 WSW 17 24 9 13 1005.9 1005.8 0.0
23/09:00pm 21.6 19.2 14.5 64 4.2 WSW 20 30 11 16 1005.7 1005.6 0.0
23/08:30pm 21.8 19.6 14.9 65 4.1 WSW 20 28 11 15 1005.2 1005.1 0.0
23/08:00pm 21.9 19.8 15.3 66 3.9 WSW 20 30 11 16 1005.0 1004.9 0.0
23/07:30pm 22.1 19.2 15.2 65 4.1 SW 24 33 13 18 1004.7 1004.6 0.0
23/07:00pm 22.4 20.0 15.5 65 4.1 WSW 22 32 12 17 1004.3 1004.2 0.0
23/06:30pm 22.8 20.1 15.6 64 4.3 SW 24 32 13 17 1004.1 1004.0 0.0
23/06:00pm 23.9 20.5 15.7 60 5.0 WSW 28 33 15 18 1003.6 1003.5 0.0
23/05:30pm 25.2 22.2 15.8 56 5.7 SW 26 33 14 18 1002.8 1002.7 0.0
23/05:00pm 25.4 22.7 15.7 55 5.9 WSW 24 33 13 18 1002.5 1002.4 0.0
23/04:30pm 25.8 23.2 15.8 54 6.1 WSW 24 37 13 20 1002.5 1002.4 0.0
23/04:00pm 25.6 22.5 15.6 54 6.1 WSW 26 33 14 18 1002.6 1002.5 0.0
23/03:30pm 26.2 23.2 15.9 53 6.3 WSW 26 41 14 22 1002.7 1002.6 0.0
23/03:00pm 26.0 23.1 16.0 54 6.1 WSW 26 39 14 21 1002.6 1002.5 0.0
23/02:30pm 26.1 23.7 16.4 55 6.0 W 24 37 13 20 1002.5 1002.4 0.0
23/02:00pm 26.6 23.4 16.2 52 6.4 WSW 28 39 15 21 1002.5 1002.4 0.0
23/01:30pm 27.2 25.3 16.8 53 6.5 SW 22 35 12 19 1002.4 1002.3 0.0
23/01:00pm 27.2 24.7 17.1 54 6.3 SW 26 37 14 20 1002.5 1002.4 0.0
23/12:30pm 27.2 25.1 17.1 54 6.3 WSW 24 33 13 18 1002.5 1002.4 0.0
23/12:00pm 27.7 25.5 17.8 54 6.3 SW 26 39 14 21 1002.6 1002.5 0.0
23/11:30am 27.2 24.8 17.4 55 6.2 WSW 26 37 14 20 1002.6 1002.5 0.0
23/11:00am 27.1 25.0 18.1 58 5.7 WSW 26 37 14 20 1002.8 1002.7 0.0
23/10:30am 26.2 24.7 17.8 60 5.3 W 22 32 12 17 1002.7 1002.6 0.0
23/10:00am 27.1 24.7 15.5 49 7.1 WSW 22 28 12 15 1002.4 1002.3 0.0
23/09:30am 27.3 26.3 17.5 55 6.2 W 19 24 10 13 1002.2 1002.1 0.0
23/09:00am 27.0 29.0 16.9 54 6.3 WSW 2 9 1 5 1001.8 1001.7 0.0
23/08:30am 25.9 25.8 15.9 54 6.1 SW 11 17 6 9 1001.9 1001.8 0.0
23/08:00am 25.2 24.0 14.0 49 6.6 SW 13 17 7 9 1001.6 1001.5 0.0
23/07:30am 24.6 24.6 13.5 50 6.5 S 6 7 3 4 1001.6 1001.5 0.0
23/07:00am 23.2 23.3 13.9 56 5.5 SE 6 7 3 4 1001.4 1001.3 0.0
23/06:30am 21.8 21.1 14.4 63 4.3 WSW 11 15 6 8 1001.3 1001.2 0.0
23/06:00am 19.0 20.3 14.1 73 2.8 CALM 0 7 0 4 1001.1 1001.0 0.0
23/05:30am 20.3 19.9 14.2 68 3.5 SSE 9 11 5 6 1000.8 1000.7 0.0
23/05:00am 21.5 19.6 14.2 63 4.3 WSW 17 20 9 11 1000.7 1000.6 0.0
23/04:30am 20.7 19.5 12.7 60 4.5 NNE 11 13 6 7 1000.1 1000.0 0.0
23/04:00am 18.3 17.1 12.7 70 3.1 NNE 11 13 6 7 999.9 999.8 0.0
23/03:30am 16.8 16.4 12.9 78 2.2 N 7 7 4 4 1000.0 999.9 0.0
23/03:00am 16.8 15.9 12.5 76 2.4 N 9 9 5 5 1000.2 1000.1 0.0
23/02:30am 17.7 17.4 13.2 75 2.5 NE 7 9 4 5 1000.4 1000.3 0.0
23/02:00am 19.0 18.2 14.1 73 2.8 W 11 13 6 7 1000.4 1000.3 0.0
23/01:30am 18.1 19.0 13.0 72 2.9 CALM 0 7 0 4 1000.7 1000.6 0.0
23/01:00am 18.5 18.1 12.9 70 3.2 NW 7 7 4 4 1000.8 1000.7 0.0
23/12:30am 19.6 19.4 13.5 68 3.5 ENE 7 9 4 5 1000.9 1000.8 0.0
23/12:00am 21.9 20.6 13.8 60 4.7 S 13 15 7 8 1001.1 1001.0 0.0
 
Date/Time
WST
Temp
°C
App
Temp
°C
Dew
Point
°C
Rel
Hum
%
Delta-T
°C
Wind Press
QNH
hPa
Press
MSL
hPa
Rain since
9am
mm
Dir  Spd
km/h
Gust
km/h
Spd
kts
Gust
kts
22/11:30pm 22.1 21.1 14.7 63 4.4 S 13 17 7 9 1001.6 1001.5 0.0
22/11:00pm 23.1 21.6 15.2 61 4.7 SW 17 19 9 10 1001.9 1001.8 0.0
22/10:30pm 23.4 22.6 14.1 56 5.5 SW 11 15 6 8 1002.0 1001.9 0.0
22/10:00pm 24.1 22.9 13.9 53 6.0 SSW 13 17 7 9 1001.9 1001.8 0.0
22/09:30pm 25.1 24.1 14.6 52 6.3 SSW 13 17 7 9 1002.2 1002.1 0.0
22/09:00pm 25.4 23.9 14.2 50 6.7 SSW 15 19 8 10 1002.3 1002.2 0.0
22/08:30pm 25.8 24.1 14.6 50 6.7 WSW 17 19 9 10 1002.4 1002.3 0.0
22/08:00pm 26.7 25.2 14.1 46 7.5 SW 15 19 8 10 1002.2 1002.1 0.0
22/07:30pm 27.5 25.0 13.4 41 8.3 SW 19 24 10 13 1002.1 1002.0 0.0
22/07:00pm 28.7 25.7 12.6 37 9.5 SW 20 30 11 16 1001.9 1001.8 0.0
22/06:30pm 29.7 26.1 13.0 35 9.9 SW 24 30 13 16 1001.6 1001.5 0.0
22/06:00pm 30.1 26.4 13.8 37 9.8 SW 26 32 14 17 1001.7 1001.6 0.0
22/05:30pm 30.1 26.1 13.0 35 10.1 SW 26 33 14 18 1001.6 1001.5 0.0
22/05:00pm 30.3 26.3 15.2 40 9.3 SW 30 35 16 19 1001.6 1001.5 0.0
22/04:30pm 30.5 26.2 15.4 40 9.3 SW 32 41 17 22 1001.7 1001.6 0.0
22/04:00pm 31.8 28.0 15.7 37 10.1 WSW 30 37 16 20 1001.8 1001.7 0.0
22/03:30pm 32.3 29.5 17.4 41 9.5 W 28 39 15 21 1001.5 1001.4 0.0
22/03:00pm 34.6 31.9 15.5 32 12.0 WSW 24 30 13 16 1001.5 1001.4 0.0
22/02:30pm 34.5 31.3 15.4 32 11.9 W 26 32 14 17 1001.9 1001.8 0.0
22/02:00pm 35.4 33.1 15.7 31 12.5 W 22 33 12 18 1002.0 1001.9 0.0
22/01:30pm 35.3 33.2 14.6 29 12.8 SW 19 26 10 14 1002.3 1002.2 0.0
22/01:00pm 35.8 34.0 12.1 24 14.2 WSW 13 20 7 11 1002.6 1002.5 0.0
22/12:30pm 35.5 34.6 12.5 25 13.8 SW 9 13 5 7 1003.1 1003.0 0.0
22/12:00pm 34.7 34.1 13.5 28 13.0 SE 9 13 5 7 1003.3 1003.2 0.0
22/11:30am 32.7 31.9 12.9 30 11.9 ESE 9 17 5 9 1003.8 1003.7 0.0
22/11:00am 32.0 31.3 13.2 31 11.3 SE 9 15 5 8 1004.5 1004.4 0.0
22/10:30am 30.3 28.8 13.1 34 10.2 ESE 13 24 7 13 1005.0 1004.9 0.0
22/10:00am 29.2 26.5 13.4 38 9.4 E 20 28 11 15 1005.4 1005.3 0.0
22/09:30am 27.8 23.5 13.3 40 8.6 ENE 28 35 15 19 1005.7 1005.6 0.0
22/09:00am 27.0 23.4 14.1 45 7.7 E 26 35 14 19 1005.9 1005.8 0.0
22/08:30am 24.2 19.9 13.1 50 6.4 E 28 35 15 19 1006.3 1006.2 0.0
22/08:00am 23.0 20.2 13.2 54 5.7 ENE 20 35 11 19 1006.5 1006.4 0.0
22/07:30am 22.1 19.5 13.2 57 5.1 ENE 19 26 10 14 1006.5 1006.4 0.0
22/07:00am 21.5 17.9 13.2 59 4.8 ENE 24 37 13 20 1006.9 1006.8 0.0
22/06:30am 20.6 19.1 13.1 62 4.3 ENE 13 22 7 12 1006.8 1006.7 0.0
22/06:00am 20.1 18.2 13.1 64 4.0 ENE 15 22 8 12 1006.8 1006.7 0.0
22/05:30am 20.2 19.4 12.9 63 4.1 ENE 9 19 5 10 1006.7 1006.6 0.0
22/05:00am 20.3 19.2 13.0 63 4.2 NE 11 20 6 11 1006.5 1006.4 0.0
22/04:30am 20.7 16.3 12.9 61 4.4 E 28 44 15 24 1006.0 1005.9 0.0
22/04:18am 21.0 15.2 12.7 59 4.7 E 35 54 19 29 1005.8 1005.7 0.0
22/04:00am 21.1 14.2 12.8 59 4.7 E 41 56 22 30 1005.8 1005.7 0.0
22/03:30am 21.6 14.7 12.7 57 5.1 E 41 57 22 31 1006.0 1005.9 0.0
22/03:00am 22.3 16.1 12.5 53 5.6 E 37 59 20 32 1006.2 1006.1 0.0
22/02:51am 22.3 16.1 12.5 53 5.6 E 37 59 20 32 1006.2 1006.1 0.0
22/02:30am 22.9 17.2 13.1 54 5.6 E 35 52 19 28 1006.3 1006.2 0.0
22/02:00am 23.9 17.4 12.8 49 6.4 ESE 39 56 21 30 1006.5 1006.4 0.0
22/01:46am 24.1 18.9 12.7 49 6.6 E 32 52 17 28 1006.7 1006.6 0.0
22/01:30am 24.3 21.5 13.2 50 6.4 E 20 33 11 18 1007.1 1007.0 0.0
22/01:00am 25.5 24.0 13.0 46 7.3 ESE 13 28 7 15 1007.3 1007.2 0.0
22/12:30am 25.9 23.7 13.4 46 7.3 SE 17 30 9 16 1007.3 1007.2 0.0
22/12:00am 26.6 23.9 13.0 43 8.0 SE 19 28 10 15 1007.2 1007.1 0.0
 
Date/Time
WST
Temp
°C
App
Temp
°C
Dew
Point
°C
Rel
Hum
%
Delta-T
°C
Wind Press
QNH
hPa
Press
MSL
hPa
Rain since
9am
mm
Dir  Spd
km/h
Gust
km/h
Spd
kts
Gust
kts
21/11:30pm 26.9 25.6 13.6 44 7.9 ESE 13 28 7 15 1007.3 1007.2 0.0
21/11:00pm 24.7 23.3 15.6 57 5.5 ESE 17 26 9 14 1007.6 1007.5 0.0
21/10:30pm 25.3 24.7 16.7 59 5.3 S 15 17 8 9 1007.6 1007.5 0.0
21/10:00pm 26.1 25.0 17.2 58 5.6 S 19 24 10 13 1007.7 1007.6 0.0
21/09:30pm 27.0 26.4 17.5 56 6.0 SSW 17 20 9 11 1007.7 1007.6 0.0
21/09:00pm 27.3 27.1 17.5 55 6.2 SW 15 19 8 10 1007.7 1007.6 0.0
21/08:30pm 27.6 27.2 17.2 53 6.5 SW 15 19 8 10 1007.5 1007.4 0.0
21/08:00pm 28.0 26.6 16.9 51 7.0 SSW 20 28 11 15 1007.4 1007.3 0.0
21/07:30pm 28.4 26.8 16.0 47 7.7 SW 19 26 10 14 1007.4 1007.3 0.0
21/07:00pm 29.0 26.8 15.9 45 8.1 SW 22 30 12 16 1007.4 1007.3 0.0
21/06:30pm 30.0 28.1 16.8 45 8.3 WSW 22 32 12 17 1007.1 1007.0 0.0
21/06:00pm 31.4 28.2 16.2 40 9.5 SW 28 32 15 17 1006.7 1006.6 0.0
21/05:30pm 31.4 27.6 15.8 39 9.7 SW 30 39 16 21 1006.8 1006.7 0.0
21/05:00pm 32.0 27.7 15.5 37 10.3 SW 32 44 17 24 1006.8 1006.7 0.0
21/04:30pm 32.9 28.7 15.8 35 10.7 WSW 32 39 17 21 1007.0 1006.9 0.0
21/04:00pm 33.2 29.4 15.7 35 11.0 WSW 30 41 16 22 1007.1 1007.0 0.0
21/03:30pm 33.4 29.1 15.4 34 11.2 WSW 32 41 17 22 1007.2 1007.1 0.0
21/03:00pm 34.0 29.7 15.9 33 11.4 WSW 33 41 18 22 1007.4 1007.3 0.0
21/02:30pm 34.4 31.7 16.7 34 11.3 W 26 35 14 19 1007.6 1007.5 0.0
21/02:00pm 35.2 32.7 17.0 34 11.7 W 26 37 14 20 1007.7 1007.6 0.0
21/01:30pm 35.6 33.2 11.3 23 14.4 WSW 15 28 8 15 1008.2 1008.1 0.0
21/01:00pm 35.7 34.6 12.0 24 14.2 ESE 9 17 5 9 1008.5 1008.4 0.0
21/12:30pm 35.3 34.3 12.3 25 13.8 ESE 9 20 5 11 1009.0 1008.9 0.0
21/12:00pm 33.9 32.3 12.8 28 12.7 ESE 13 20 7 11 1009.4 1009.3 0.0
21/11:30am 33.6 30.8 12.6 28 12.6 S 19 30 10 16 1009.8 1009.7 0.0
21/11:00am 33.0 31.3 13.6 31 11.8 S 15 26 8 14 1010.2 1010.1 0.0
21/10:30am 31.4 30.5 13.6 33 10.7 S 11 15 6 8 1010.5 1010.4 0.0
21/10:00am 31.3 30.6 14.4 35 10.3 SSE 11 19 6 10 1010.9 1010.8 0.0
21/09:30am 29.6 28.6 14.6 40 9.1 ESE 13 26 7 14 1011.1 1011.0 0.0
21/09:00am 27.9 27.2 14.2 43 8.2 ESE 11 15 6 8 1011.4 1011.3 0.0
21/08:30am 28.0 26.9 14.3 43 8.2 SSE 13 19 7 10 1011.6 1011.5 0.0
21/08:00am 26.7 25.3 14.5 47 7.3 SE 15 26 8 14 1011.8 1011.7 0.0
21/07:30am 25.3 24.5 14.1 50 6.6 ESE 11 22 6 12 1011.7 1011.6 0.0
21/07:00am 24.4 24.6 14.2 53 6.0 SE 6 11 3 6 1011.5 1011.4 0.0
21/06:30am 23.7 22.4 13.8 53 5.8 S 13 19 7 10 1011.5 1011.4 0.0
21/06:00am 23.2 22.3 13.7 55 5.5 SSW 11 17 6 9 1011.1 1011.0 0.0
21/05:30am 23.1 21.8 13.8 55 5.4 S 13 17 7 9 1010.9 1010.8 0.0
21/05:00am 23.5 22.1 14.5 57 5.3 SSW 15 19 8 10 1010.8 1010.7 0.0
21/04:30am 23.8 21.7 15.3 59 5.1 SSW 20 28 11 15 1010.6 1010.5 0.0
21/04:00am 24.6 23.0 15.0 55 5.8 SSW 17 26 9 14 1010.4 1010.3 0.0
21/03:30am 25.2 23.9 14.9 52 6.2 S 15 22 8 12 1010.0 1009.9 0.0
21/03:00am 25.4 24.6 15.1 53 6.2 S 13 22 7 12 1009.8 1009.7 0.0
21/02:30am 25.7 22.9 15.4 53 6.2 SE 24 33 13 18 1009.9 1009.8 0.0
21/02:00am 26.1 23.4 15.5 52 6.4 SE 24 35 13 19 1009.9 1009.8 0.0
21/01:30am 26.7 24.3 15.4 50 6.9 SE 22 46 12 25 1010.0 1009.9 0.0
21/01:00am 26.8 26.7 16.1 52 6.6 SSE 11 24 6 13 1010.0 1009.9 0.0
21/12:30am 26.2 25.9 16.4 54 6.0 S 13 19 7 10 1010.0 1009.9 0.0
21/12:00am 24.3 25.3 17.8 67 4.1 SSW 9 15 5 8 1010.0 1009.9 0.0
 
Date/Time
WST
Temp
°C
App
Temp
°C
Dew
Point
°C
Rel
Hum
%
Delta-T
°C
Wind Press
QNH
hPa
Press
MSL
hPa
Rain since
9am
mm
Dir  Spd
km/h
Gust
km/h
Spd
kts
Gust
kts
20/11:30pm 23.9 25.4 18.1 70 3.6 SW 7 9 4 5 1010.0 1009.9 0.0

Other formats

Comma delimited format used in spreadsheet applications
http://www.bom.gov.au/fwo/IDW60801/IDW60801.94610.axf

JavaScript Object Notation format (JSON) in row-major order
http://www.bom.gov.au/fwo/IDW60801/IDW60801.94610.json

Data quality

Most of these data are generated automatically and are frequently updated. Quality checks on data are not normally performed. It is possible for incorrect values to appear. Refer to information at About Latest Weather Observations and please check the disclaimer before using these data.